Time;durP1;ratioP1;P1;durP2;ratioP2;P2;SDS_P1;SDS_P2;PMS_P1;PMS_P2;Temp;Humidity;BMP_temperature;BMP_pressure;BME280_temperature;BME280_humidity;BME280_pressure;Samples;Min_cycle;Max_cycle;Signal;HPM_P1;HPM_P2
2023/12/25 00:01:48;;;;;;;7.20;3.70;;;;;;;-0.26;100.00;99212.92;109294;1253;61083;-64
2023/12/25 00:04:16;;;;;;;6.20;3.40;;;;;;;-0.25;100.00;99214.35;109370;1252;60064;-64
2023/12/25 00:06:44;;;;;;;7.50;4.00;;;;;;;-0.21;100.00;99216.14;109301;1252;73468;-64
2023/12/25 00:09:11;;;;;;;7.20;4.00;;;;;;;-0.19;100.00;99217.09;109306;1253;67871;-65
2023/12/25 00:11:39;;;;;;;7.70;4.30;;;;;;;-0.17;100.00;99214.58;109336;1252;72040;-63
2023/12/25 00:14:07;;;;;;;6.50;3.50;;;;;;;-0.15;100.00;99217.40;109292;1253;60225;-62
2023/12/25 00:16:34;;;;;;;6.30;3.90;;;;;;;-0.13;100.00;99225.23;109360;1253;60119;-63
2023/12/25 00:19:03;;;;;;;5.70;3.60;;;;;;;-0.11;100.00;99223.21;109335;1253;74743;-64
2023/12/25 00:21:30;;;;;;;6.70;3.90;;;;;;;-0.10;100.00;99222.42;109342;1253;67079;-65
2023/12/25 00:23:58;;;;;;;7.40;4.00;;;;;;;-0.09;100.00;99218.23;109304;1253;74874;-64
2023/12/25 00:26:26;;;;;;;6.60;3.60;;;;;;;-0.06;100.00;99218.83;109274;1253;58936;-64
2023/12/25 00:28:58;;;;;;;7.80;3.70;;;;;;;-0.04;100.00;99214.02;109274;1252;60058;-63
2023/12/25 00:31:26;;;;;;;7.20;4.10;;;;;;;-0.05;100.00;99213.55;109292;1253;75490;-63
2023/12/25 00:33:54;;;;;;;7.10;3.90;;;;;;;-0.03;100.00;99213.55;109342;1253;66225;-63
2023/12/25 00:36:22;;;;;;;7.40;3.90;;;;;;;-0.00;100.00;99211.63;109346;1253;71466;-63
2023/12/25 00:38:49;;;;;;;7.00;4.50;;;;;;;0.00;100.00;99208.69;109288;1252;60981;-63
2023/12/25 00:41:17;;;;;;;8.00;4.20;;;;;;;0.01;100.00;99208.15;109302;1253;59127;-65
2023/12/25 00:43:44;;;;;;;7.00;4.00;;;;;;;0.02;100.00;99210.44;109442;1252;74504;-63
2023/12/25 00:46:12;;;;;;;8.20;4.10;;;;;;;0.04;100.00;99210.41;109306;1253;67064;-62
2023/12/25 00:48:40;;;;;;;8.20;4.30;;;;;;;0.03;100.00;99209.61;109319;1252;71356;-63
2023/12/25 00:51:07;;;;;;;7.90;4.30;;;;;;;0.05;100.00;99210.67;109316;1252;59741;-64
2023/12/25 00:53:35;;;;;;;6.20;4.00;;;;;;;0.05;100.00;99209.77;109341;1252;60068;-63
2023/12/25 00:56:04;;;;;;;8.00;4.00;;;;;;;0.06;100.00;99207.77;109352;1253;74748;-63
2023/12/25 00:58:32;;;;;;;7.30;4.20;;;;;;;0.06;100.00;99208.66;109344;1253;66942;-63
2023/12/25 01:01:00;;;;;;;8.60;4.70;;;;;;;0.08;100.00;99211.59;109314;1253;72732;-63
2023/12/25 01:03:28;;;;;;;7.40;4.30;;;;;;;0.10;100.00;99215.14;109254;1253;59660;-65
2023/12/25 01:05:55;;;;;;;6.80;4.20;;;;;;;0.12;100.00;99216.86;109291;1253;59450;-63
2023/12/25 01:08:24;;;;;;;8.30;4.30;;;;;;;0.13;100.00;99220.47;109346;1252;74756;-64
2023/12/25 01:10:51;;;;;;;8.30;3.80;;;;;;;0.13;100.00;99215.67;109409;1252;66367;-63
2023/12/25 01:13:19;;;;;;;9.80;4.90;;;;;;;0.14;100.00;99215.75;109313;1253;71455;-64
2023/12/25 01:15:47;;;;;;;8.70;4.80;;;;;;;0.15;100.00;99221.00;109352;1252;59784;-64
2023/12/25 01:18:15;;;;;;;8.20;4.10;;;;;;;0.16;100.00;99217.83;109348;1252;60022;-64
2023/12/25 01:20:43;;;;;;;8.20;4.40;;;;;;;0.17;100.00;99224.55;109274;1252;74735;-64
2023/12/25 01:23:11;;;;;;;6.70;4.00;;;;;;;0.16;100.00;99223.95;109324;1252;65851;-65
2023/12/25 01:25:39;;;;;;;8.90;4.50;;;;;;;0.16;100.00;99225.64;109263;1253;71505;-65
2023/12/25 01:28:07;;;;;;;8.30;4.50;;;;;;;0.16;100.00;99224.45;109304;1252;59669;-64
2023/12/25 01:30:34;;;;;;;8.10;3.80;;;;;;;0.15;100.00;99225.10;109345;1253;60087;-65
2023/12/25 01:33:02;;;;;;;8.30;4.00;;;;;;;0.14;100.00;99228.23;109343;1252;73450;-65
2023/12/25 01:35:30;;;;;;;8.10;4.10;;;;;;;0.13;100.00;99232.23;109352;1252;65337;-65
2023/12/25 01:37:58;;;;;;;11.00;4.40;;;;;;;0.12;100.00;99236.63;109283;1253;73221;-64
2023/12/25 01:40:25;;;;;;;8.60;4.10;;;;;;;0.10;100.00;99243.94;109241;1253;59775;-64
2023/12/25 01:42:56;;;;;;;6.50;3.60;;;;;;;0.10;100.00;99245.83;109367;1252;60118;-64
2023/12/25 01:45:23;;;;;;;9.30;4.60;;;;;;;0.09;100.00;99249.03;109290;1253;74765;-64
2023/12/25 01:47:51;;;;;;;8.80;4.70;;;;;;;0.09;100.00;99253.36;109365;1252;66207;-63
2023/12/25 01:50:19;;;;;;;8.10;4.20;;;;;;;0.08;100.00;99256.99;109381;1253;71939;-62
2023/12/25 01:52:49;;;;;;;6.90;3.90;;;;;;;0.08;100.00;99258.34;109427;1251;59661;-63
2023/12/25 01:55:17;;;;;;;8.50;4.20;;;;;;;0.07;100.00;99267.31;109349;1253;59036;-63
2023/12/25 01:57:44;;;;;;;6.60;3.60;;;;;;;0.09;100.00;99269.94;109262;1253;73481;-63
2023/12/25 02:00:13;;;;;;;6.80;3.80;;;;;;;0.10;100.00;99271.00;109393;1252;65725;-63
2023/12/25 02:02:42;;;;;;;8.10;4.60;;;;;;;0.10;100.00;99271.83;109283;1253;71762;-63
2023/12/25 02:05:09;;;;;;;7.80;4.40;;;;;;;0.11;100.00;99275.52;109337;1253;60972;-63
2023/12/25 02:07:40;;;;;;;6.80;4.20;;;;;;;0.12;100.00;99277.31;109339;1252;59428;-64
2023/12/25 02:10:08;;;;;;;8.30;4.00;;;;;;;0.12;100.00;99278.50;109481;1252;73361;-63
2023/12/25 02:12:36;;;;;;;8.80;4.60;;;;;;;0.11;100.00;99281.81;109360;1253;66937;-64
2023/12/25 02:15:04;;;;;;;7.30;4.00;;;;;;;0.10;100.00;99284.01;109333;1252;71386;-63
2023/12/25 02:17:32;;;;;;;9.10;4.30;;;;;;;0.08;100.00;99281.95;109312;1252;59590;-63
2023/12/25 02:20:00;;;;;;;6.60;3.70;;;;;;;0.08;100.00;99285.50;109270;1253;59185;-63
2023/12/25 02:22:28;;;;;;;7.60;4.10;;;;;;;0.07;100.00;99289.88;109417;1253;75035;-63
2023/12/25 02:25:00;;;;;;;6.80;3.70;;;;;;;0.04;100.00;99291.35;109389;1252;66925;-63
2023/12/25 02:27:31;;;;;;;8.30;4.50;;;;;;;0.01;100.00;99287.39;109135;1252;72765;-63
2023/12/25 02:29:59;;;;;;;8.50;4.50;;;;;;;-0.01;100.00;99283.80;109242;1253;60923;-63
2023/12/25 02:32:29;;;;;;;6.90;3.50;;;;;;;-0.04;100.00;99281.80;109277;1253;58928;-62
2023/12/25 02:34:57;;;;;;;6.40;3.80;;;;;;;-0.06;100.00;99282.83;109320;1253;74700;-63
2023/12/25 02:37:25;;;;;;;6.30;3.40;;;;;;;-0.08;100.00;99283.09;109255;1252;66979;-64
2023/12/25 02:39:52;;;;;;;10.30;4.90;;;;;;;-0.11;100.00;99288.06;109281;1253;71744;-63
2023/12/25 02:42:20;;;;;;;6.80;3.60;;;;;;;-0.13;100.00;99287.44;109261;1253;59671;-63
2023/12/25 02:44:48;;;;;;;7.90;4.30;;;;;;;-0.17;100.00;99290.58;109363;1253;60106;-63
2023/12/25 02:47:16;;;;;;;6.80;3.60;;;;;;;-0.21;100.00;99293.95;109397;1252;74752;-63
2023/12/25 02:49:43;;;;;;;7.20;4.00;;;;;;;-0.25;100.00;99296.23;109337;1253;67023;-63
2023/12/25 02:52:11;;;;;;;8.10;4.30;;;;;;;-0.30;100.00;99296.44;109335;1253;72732;-62
2023/12/25 02:54:39;;;;;;;7.10;3.80;;;;;;;-0.34;100.00;99300.54;109360;1253;59639;-63
2023/12/25 02:57:06;;;;;;;7.00;4.00;;;;;;;-0.38;100.00;99300.19;109202;1251;60158;-63
2023/12/25 02:59:34;;;;;;;6.70;3.50;;;;;;;-0.40;100.00;99304.35;109362;1252;74832;-63
2023/12/25 03:02:02;;;;;;;9.20;4.20;;;;;;;-0.42;100.00;99302.30;109320;1253;66027;-63
2023/12/25 03:04:29;;;;;;;8.00;3.50;;;;;;;-0.45;100.00;99301.70;109391;1252;71238;-62
2023/12/25 03:06:57;;;;;;;6.80;3.60;;;;;;;-0.47;100.00;99301.68;109308;1253;61005;-62
2023/12/25 03:09:24;;;;;;;7.90;3.40;;;;;;;-0.46;100.00;99306.29;109363;1252;59409;-63
2023/12/25 03:11:52;;;;;;;7.60;3.90;;;;;;;-0.46;100.00;99306.64;109366;1252;73445;-63
2023/12/25 03:14:20;;;;;;;7.60;4.00;;;;;;;-0.47;100.00;99308.37;109340;1253;66311;-62
2023/12/25 03:16:47;;;;;;;9.60;4.60;;;;;;;-0.47;100.00;99310.28;109288;1252;72806;-62
2023/12/25 03:19:15;;;;;;;8.40;4.20;;;;;;;-0.48;100.00;99308.84;109224;1253;60991;-62
2023/12/25 03:21:43;;;;;;;8.10;3.60;;;;;;;-0.47;100.00;99308.27;109361;1253;59374;-62
2023/12/25 03:24:10;;;;;;;9.80;4.70;;;;;;;-0.47;100.00;99306.98;109230;1252;74875;-63
2023/12/25 03:26:38;;;;;;;7.20;3.60;;;;;;;-0.46;100.00;99306.64;109377;1253;67801;-62
2023/12/25 03:29:06;;;;;;;7.40;4.10;;;;;;;-0.47;100.00;99299.73;109313;1253;71436;-62
2023/12/25 03:31:33;;;;;;;7.30;4.30;;;;;;;-0.49;100.00;99304.75;109354;1253;59692;-62
2023/12/25 03:34:01;;;;;;;8.60;4.60;;;;;;;-0.52;100.00;99307.23;109369;1252;58944;-62
2023/12/25 03:36:29;;;;;;;6.80;3.90;;;;;;;-0.52;100.00;99315.46;109305;1252;74695;-62
2023/12/25 03:38:56;;;;;;;8.50;4.10;;;;;;;-0.53;100.00;99321.20;109384;1253;65633;-62
2023/12/25 03:41:24;;;;;;;8.10;4.10;;;;;;;-0.52;100.00;99319.09;109340;1253;70591;-62
2023/12/25 03:43:52;;;;;;;7.30;3.90;;;;;;;-0.53;100.00;99317.79;109317;1252;60883;-62
2023/12/25 03:46:19;;;;;;;8.90;4.60;;;;;;;-0.55;100.00;99315.94;109289;1252;60098;-63
2023/12/25 03:48:47;;;;;;;8.10;4.10;;;;;;;-0.57;100.00;99317.42;109370;1253;74879;-62
2023/12/25 03:51:15;;;;;;;11.40;4.30;;;;;;;-0.58;100.00;99325.91;109377;1252;65955;-62
2023/12/25 03:53:42;;;;;;;6.80;4.10;;;;;;;-0.60;100.00;99328.80;109302;1251;72865;-62
2023/12/25 03:56:14;;;;;;;8.20;3.80;;;;;;;-0.60;100.00;99333.80;109311;1252;60911;-62
2023/12/25 03:58:42;;;;;;;7.90;4.30;;;;;;;-0.59;100.00;99340.89;109377;1252;60116;-62
2023/12/25 04:01:13;;;;;;;7.30;4.20;;;;;;;-0.59;100.00;99341.55;109391;1252;74700;-62
2023/12/25 04:03:41;;;;;;;8.50;4.30;;;;;;;-0.56;100.00;99343.67;109445;1252;66817;-62
2023/12/25 04:06:08;;;;;;;7.50;4.40;;;;;;;-0.52;100.00;99349.10;109338;1253;72678;-64
2023/12/25 04:08:37;;;;;;;7.00;4.50;;;;;;;-0.52;100.00;99354.05;109232;1253;61024;-62
2023/12/25 04:11:05;;;;;;;6.70;3.90;;;;;;;-0.52;100.00;99355.42;109223;1253;60073;-62
2023/12/25 04:13:32;;;;;;;8.30;4.70;;;;;;;-0.56;100.00;99361.70;109250;1252;72461;-62
2023/12/25 04:16:00;;;;;;;9.60;5.10;;;;;;;-0.60;100.00;99364.09;109227;1253;67468;-63
2023/12/25 04:18:27;;;;;;;14.50;5.60;;;;;;;-0.62;100.00;99366.31;109424;1251;71722;-62
2023/12/25 04:20:55;;;;;;;8.90;4.50;;;;;;;-0.61;100.00;99364.70;109352;1253;60876;-62
2023/12/25 04:23:23;;;;;;;8.40;4.80;;;;;;;-0.61;100.00;99361.44;109177;1252;60097;-62
2023/12/25 04:25:51;;;;;;;8.50;4.90;;;;;;;-0.62;100.00;99361.06;109201;1253;75160;-62
2023/12/25 04:28:19;;;;;;;11.70;6.20;;;;;;;-0.63;100.00;99366.08;109369;1253;67271;-62
2023/12/25 04:30:46;;;;;;;11.10;6.20;;;;;;;-0.64;100.00;99366.02;109204;1253;71507;-62
2023/12/25 04:33:14;;;;;;;13.50;6.10;;;;;;;-0.66;100.00;99368.95;109189;1253;59671;-62
2023/12/25 04:35:42;;;;;;;12.80;6.10;;;;;;;-0.67;100.00;99367.83;109181;1252;60184;-62
2023/12/25 04:38:10;;;;;;;12.50;6.30;;;;;;;-0.68;100.00;99366.36;109304;1252;75011;-62
2023/12/25 04:40:38;;;;;;;11.60;7.00;;;;;;;-0.72;100.00;99362.42;109233;1253;65774;-61
2023/12/25 04:43:05;;;;;;;15.40;7.60;;;;;;;-0.75;100.00;99357.58;109193;1253;72841;-61
2023/12/25 04:45:36;;;;;;;12.00;6.60;;;;;;;-0.80;100.00;99359.00;109357;1253;61180;-61
2023/12/25 04:48:04;;;;;;;10.90;6.90;;;;;;;-0.86;100.00;99355.95;109185;1253;60041;-63
2023/12/25 04:50:33;;;;;;;12.40;6.30;;;;;;;-0.93;100.00;99358.45;109432;1252;74870;-62
2023/12/25 04:53:01;;;;;;;13.00;6.50;;;;;;;-1.02;100.00;99353.58;109299;1253;66913;-62
2023/12/25 04:55:29;;;;;;;14.70;8.30;;;;;;;-1.12;100.00;99348.98;109218;1253;73205;-61
2023/12/25 04:57:56;;;;;;;11.60;6.40;;;;;;;-1.22;100.00;99347.77;109336;1252;60988;-62
2023/12/25 05:00:24;;;;;;;12.90;6.20;;;;;;;-1.32;100.00;99344.34;109356;1253;59909;-62
2023/12/25 05:02:51;;;;;;;14.60;7.60;;;;;;;-1.40;100.00;99344.16;109371;1253;73399;-62
2023/12/25 05:05:19;;;;;;;13.60;7.10;;;;;;;-1.47;100.00;99344.29;109332;1253;65776;-62
2023/12/25 05:07:47;;;;;;;13.50;7.10;;;;;;;-1.55;100.00;99342.38;109354;1253;73096;-61
2023/12/25 05:10:15;;;;;;;13.20;6.90;;;;;;;-1.62;100.00;99346.91;109283;1253;60920;-61
2023/12/25 05:12:42;;;;;;;11.90;6.30;;;;;;;-1.67;100.00;99349.91;109398;1253;59032;-61
2023/12/25 05:15:12;;;;;;;11.20;6.70;;;;;;;-1.73;100.00;99353.58;109406;1253;73373;-62
2023/12/25 05:17:40;;;;;;;12.20;6.80;;;;;;;-1.77;100.00;99359.67;109364;1253;66077;-61
2023/12/25 05:20:08;;;;;;;11.30;6.40;;;;;;;-1.79;100.00;99356.13;109327;1253;72730;-62
2023/12/25 05:22:36;;;;;;;13.40;7.30;;;;;;;-1.81;100.00;99350.20;109411;1253;59321;-61
2023/12/25 05:25:05;;;;;;;10.70;6.10;;;;;;;-1.82;100.00;99355.71;109386;1253;58963;-61
2023/12/25 05:27:32;;;;;;;10.50;5.70;;;;;;;-1.84;100.00;99358.42;109372;1252;74671;-61
2023/12/25 05:30:00;;;;;;;14.90;7.20;;;;;;;-1.86;100.00;99358.02;109429;1253;67101;-62
2023/12/25 05:32:30;;;;;;;12.90;7.40;;;;;;;-1.85;100.00;99364.48;109408;1253;72751;-61
2023/12/25 05:34:58;;;;;;;13.80;7.60;;;;;;;-1.86;100.00;99364.23;109389;1251;60135;-61
2023/12/25 05:37:25;;;;;;;12.00;6.70;;;;;;;-1.85;100.00;99362.10;109460;1252;60131;-61
2023/12/25 05:39:53;;;;;;;11.80;6.90;;;;;;;-1.83;100.00;99356.79;109360;1252;74731;-62
2023/12/25 05:42:21;;;;;;;11.40;6.90;;;;;;;-1.77;100.00;99358.19;109366;1252;66923;-61
2023/12/25 05:44:48;;;;;;;12.60;7.00;;;;;;;-1.72;100.00;99363.57;109397;1253;72786;-61
2023/12/25 05:47:16;;;;;;;13.10;6.90;;;;;;;-1.65;100.00;99370.14;109346;1253;59656;-61
2023/12/25 05:49:44;;;;;;;12.20;7.80;;;;;;;-1.54;100.00;99371.59;109326;1253;60068;-62
2023/12/25 05:52:12;;;;;;;12.90;7.00;;;;;;;-1.45;100.00;99374.59;109371;1253;73536;-61
2023/12/25 05:54:41;;;;;;;12.90;7.50;;;;;;;-1.26;100.00;99373.73;109394;1253;66832;-61
2023/12/25 05:57:08;;;;;;;12.80;7.20;;;;;;;-0.99;100.00;99375.14;109358;1252;72741;-61
2023/12/25 05:59:37;;;;;;;12.20;6.50;;;;;;;-0.69;100.00;99386.41;109355;1253;59781;-61
2023/12/25 06:02:05;;;;;;;13.70;7.00;;;;;;;-0.36;100.00;99390.70;109324;1253;60056;-62
2023/12/25 06:04:32;;;;;;;12.90;7.80;;;;;;;-0.10;100.00;99382.75;109341;1253;74717;-61
2023/12/25 06:07:00;;;;;;;10.80;6.50;;;;;;;0.02;100.00;99384.09;109433;1253;66952;-61
2023/12/25 06:09:27;;;;;;;12.80;6.20;;;;;;;0.10;100.00;99382.67;109333;1253;70397;-62
2023/12/25 06:11:55;;;;;;;10.80;6.40;;;;;;;0.23;100.00;99384.59;109388;1253;59364;-62
2023/12/25 06:14:23;;;;;;;11.70;6.10;;;;;;;0.37;100.00;99382.64;109367;1253;60583;-62
2023/12/25 06:16:50;;;;;;;11.70;6.80;;;;;;;0.44;100.00;99379.14;109458;1253;74719;-61
2023/12/25 06:19:18;;;;;;;11.40;6.80;;;;;;;0.43;100.00;99379.01;109387;1252;64655;-61
2023/12/25 06:21:46;;;;;;;12.00;6.60;;;;;;;0.41;100.00;99381.64;109343;1253;71408;-62
2023/12/25 06:24:14;;;;;;;10.10;5.90;;;;;;;0.33;100.00;99375.15;109390;1253;59251;-61
2023/12/25 06:26:41;;;;;;;13.60;6.90;;;;;;;0.24;100.00;99380.05;109421;1253;59159;-62
2023/12/25 06:29:09;;;;;;;11.90;7.20;;;;;;;0.14;100.00;99379.27;109415;1253;74661;-61
2023/12/25 06:31:36;;;;;;;14.70;7.70;;;;;;;0.02;100.00;99372.65;109405;1253;67072;-62
2023/12/25 06:34:04;;;;;;;13.50;7.70;;;;;;;-0.08;100.00;99364.14;109393;1253;71403;-62
2023/12/25 06:36:32;;;;;;;16.50;6.90;;;;;;;-0.18;100.00;99364.06;109377;1253;59505;-62
2023/12/25 06:38:59;;;;;;;10.90;6.60;;;;;;;-0.31;100.00;99360.01;109461;1253;60095;-62
2023/12/25 06:41:27;;;;;;;11.20;6.10;;;;;;;-0.39;100.00;99351.58;109374;1252;74722;-61
2023/12/25 06:43:55;;;;;;;11.50;6.10;;;;;;;-0.47;100.00;99348.84;109369;1253;67601;-61
2023/12/25 06:46:22;;;;;;;10.70;6.60;;;;;;;-0.53;100.00;99345.04;109442;1253;71790;-61
2023/12/25 06:48:50;;;;;;;11.50;6.50;;;;;;;-0.57;100.00;99342.19;109385;1252;58978;-61
2023/12/25 06:51:18;;;;;;;12.30;6.60;;;;;;;-0.60;100.00;99334.75;109404;1252;58948;-61
2023/12/25 06:53:45;;;;;;;12.30;6.50;;;;;;;-0.62;100.00;99323.86;109347;1252;74693;-63
2023/12/25 06:56:13;;;;;;;11.70;6.60;;;;;;;-0.61;100.00;99316.09;109414;1252;65895;-61
2023/12/25 06:58:41;;;;;;;10.70;6.10;;;;;;;-0.61;100.00;99313.35;109362;1252;72781;-61
2023/12/25 07:01:08;;;;;;;10.30;5.80;;;;;;;-0.61;100.00;99315.21;109363;1253;59438;-61
2023/12/25 07:03:36;;;;;;;11.30;5.40;;;;;;;-0.55;100.00;99309.45;109408;1253;58977;-63
2023/12/25 07:06:07;;;;;;;12.60;7.00;;;;;;;-0.49;100.00;99303.41;109369;1252;74030;-61
2023/12/25 07:08:36;;;;;;;11.50;7.00;;;;;;;-0.42;100.00;99302.11;109186;1253;66915;-61
2023/12/25 07:11:04;;;;;;;10.30;6.10;;;;;;;-0.31;100.00;99303.20;109380;1253;72731;-62
2023/12/25 07:13:33;;;;;;;11.90;6.90;;;;;;;-0.21;100.00;99307.09;109387;1253;58921;-62
2023/12/25 07:16:01;;;;;;;10.30;6.30;;;;;;;-0.11;100.00;99300.02;109368;1253;59136;-62
2023/12/25 07:18:29;;;;;;;12.20;6.60;;;;;;;0.04;100.00;99297.31;109448;1253;74664;-62
2023/12/25 07:20:57;;;;;;;9.80;5.60;;;;;;;0.15;100.00;99292.86;109195;1253;65761;-61
2023/12/25 07:23:24;;;;;;;13.20;5.90;;;;;;;0.27;100.00;99283.14;109367;1253;72789;-62
2023/12/25 07:25:52;;;;;;;9.00;5.70;;;;;;;0.42;100.00;99287.72;109345;1253;59013;-61
2023/12/25 07:28:20;;;;;;;11.60;6.50;;;;;;;0.56;100.00;99288.44;109432;1252;58890;-61
2023/12/25 07:30:48;;;;;;;10.00;5.80;;;;;;;0.72;100.00;99290.69;109396;1253;73224;-62
2023/12/25 07:33:16;;;;;;;14.50;7.60;;;;;;;0.86;100.00;99296.05;109457;1253;66836;-62
2023/12/25 07:35:44;;;;;;;11.90;6.90;;;;;;;0.97;100.00;99303.38;109335;1253;73566;-62
2023/12/25 07:38:12;;;;;;;10.10;6.40;;;;;;;1.06;100.00;99305.81;109391;1253;59497;-62
2023/12/25 07:40:39;;;;;;;12.10;7.50;;;;;;;1.16;100.00;99300.06;109429;1252;59026;-62
2023/12/25 07:43:09;;;;;;;10.50;6.40;;;;;;;1.22;100.00;99300.06;109442;1252;73746;-62
2023/12/25 07:45:37;;;;;;;8.90;4.60;;;;;;;1.23;100.00;99293.75;109404;1253;66994;-64
2023/12/25 07:48:05;;;;;;;9.10;5.30;;;;;;;1.16;100.00;99286.40;109465;1253;72715;-61
2023/12/25 07:50:33;;;;;;;7.40;4.30;;;;;;;1.09;100.00;99275.88;109390;1253;59629;-62
2023/12/25 07:53:02;;;;;;;8.30;4.60;;;;;;;1.01;100.00;99273.94;109262;1253;217629;-62
2023/12/25 07:55:30;;;;;;;8.30;4.60;;;;;;;0.96;100.00;99272.94;109388;1252;74962;-62
2023/12/25 07:57:58;;;;;;;7.10;4.50;;;;;;;0.92;100.00;99266.90;109373;1252;65669;-62
2023/12/25 08:00:26;;;;;;;10.80;6.00;;;;;;;0.91;100.00;99266.30;109399;1253;71736;-62
2023/12/25 08:02:54;;;;;;;10.70;5.70;;;;;;;0.86;100.00;99267.67;109385;1253;59404;-62
2023/12/25 08:05:22;;;;;;;7.70;4.80;;;;;;;0.77;100.00;99266.64;109398;1253;60111;-62
2023/12/25 08:07:50;;;;;;;7.70;5.00;;;;;;;0.65;100.00;99263.51;109289;1253;75153;-62
2023/12/25 08:10:18;;;;;;;7.80;4.80;;;;;;;0.57;100.00;99251.97;109431;1253;65749;-62
2023/12/25 08:12:45;;;;;;;8.30;4.50;;;;;;;0.57;100.00;99241.66;109426;1253;72778;-62
2023/12/25 08:15:15;;;;;;;9.30;5.80;;;;;;;0.60;100.00;99231.86;109338;1251;59369;-61
2023/12/25 08:17:42;;;;;;;10.20;6.00;;;;;;;0.63;100.00;99225.58;109365;1253;58945;-63
2023/12/25 08:20:10;;;;;;;8.10;5.80;;;;;;;0.66;100.00;99221.17;109366;1253;73403;-62
2023/12/25 08:22:38;;;;;;;9.60;5.90;;;;;;;0.69;100.00;99218.80;109430;1252;66029;-62
2023/12/25 08:25:06;;;;;;;7.70;4.90;;;;;;;0.70;100.00;99210.34;109383;1253;72753;-62
2023/12/25 08:27:33;;;;;;;8.50;5.00;;;;;;;0.70;100.00;99202.70;109376;1251;59314;-62
2023/12/25 08:30:03;;;;;;;10.40;5.40;;;;;;;0.71;100.00;99192.70;109372;1253;60097;-62
2023/12/25 08:32:31;;;;;;;11.20;5.50;;;;;;;0.69;100.00;99185.14;109403;1253;75668;-62
2023/12/25 08:34:58;;;;;;;9.30;5.20;;;;;;;0.68;100.00;99184.24;109430;1252;65668;-62
2023/12/25 08:37:26;;;;;;;11.10;6.00;;;;;;;0.64;100.00;99175.23;109382;1253;71429;-62
2023/12/25 08:39:53;;;;;;;11.30;5.20;;;;;;;0.61;100.00;99163.20;109364;1253;61353;-62
2023/12/25 08:42:21;;;;;;;10.90;5.50;;;;;;;0.64;100.00;99161.55;109392;1252;60096;-62
2023/12/25 08:44:49;;;;;;;11.60;5.80;;;;;;;0.67;100.00;99164.28;109372;1256;74703;-62
2023/12/25 08:47:16;;;;;;;9.50;5.20;;;;;;;0.71;100.00;99165.27;109391;1253;66909;-62
2023/12/25 08:49:44;;;;;;;10.10;4.90;;;;;;;0.70;100.00;99164.88;109461;1252;75650;-62
2023/12/25 08:52:12;;;;;;;8.90;5.00;;;;;;;0.69;100.00;99172.02;109313;1251;58942;-63
2023/12/25 08:54:40;;;;;;;10.20;5.50;;;;;;;0.68;100.00;99169.64;109389;1253;60664;-62
2023/12/25 08:57:07;;;;;;;10.10;5.80;;;;;;;0.63;100.00;99169.45;109383;1253;73439;-62
2023/12/25 08:59:36;;;;;;;10.70;6.90;;;;;;;0.58;100.00;99160.17;109400;1253;70702;-62
2023/12/25 09:02:04;;;;;;;11.30;7.00;;;;;;;0.56;100.00;99156.01;109401;1253;72782;-62
2023/12/25 09:04:31;;;;;;;11.50;6.70;;;;;;;0.53;100.00;99154.35;109358;1253;58950;-63
2023/12/25 09:06:59;;;;;;;11.80;6.20;;;;;;;0.54;100.00;99146.91;109379;1253;60097;-61
2023/12/25 09:09:26;;;;;;;11.00;6.50;;;;;;;0.58;100.00;99142.10;109399;1253;74718;-62
2023/12/25 09:11:54;;;;;;;14.70;7.20;;;;;;;0.59;100.00;99134.26;109384;1253;65447;-62
2023/12/25 09:14:21;;;;;;;11.60;6.80;;;;;;;0.57;100.00;99129.40;109336;1253;72689;-63
2023/12/25 09:16:49;;;;;;;12.50;7.80;;;;;;;0.58;100.00;99129.66;109383;1253;58967;-61
2023/12/25 09:19:17;;;;;;;12.70;7.10;;;;;;;0.57;100.00;99121.19;109441;1253;60129;-61
2023/12/25 09:21:45;;;;;;;11.90;6.70;;;;;;;0.56;100.00;99113.59;109404;1253;73781;-61
2023/12/25 09:24:13;;;;;;;14.40;7.40;;;;;;;0.53;100.00;99116.73;109345;1253;70642;-62
2023/12/25 09:26:41;;;;;;;14.10;7.00;;;;;;;0.54;100.00;99113.06;109337;1253;71471;-61
2023/12/25 09:29:11;;;;;;;12.10;7.10;;;;;;;0.56;100.00;99108.75;109425;1253;59587;-61
2023/12/25 09:31:39;;;;;;;11.60;6.90;;;;;;;0.59;100.00;99099.24;109416;1252;61097;-61
2023/12/25 09:34:06;;;;;;;13.30;7.30;;;;;;;0.55;100.00;99090.54;109155;1253;76631;-62
2023/12/25 09:36:34;;;;;;;11.90;7.30;;;;;;;0.54;100.00;99082.48;109406;1253;66863;-61
2023/12/25 09:39:03;;;;;;;10.50;7.10;;;;;;;0.49;100.00;99081.44;109398;1252;72770;-62
2023/12/25 09:41:32;;;;;;;12.40;7.10;;;;;;;0.45;100.00;99080.11;109386;1252;60163;-61
2023/12/25 09:44:00;;;;;;;14.80;7.70;;;;;;;0.45;100.00;99071.91;109377;1253;60464;-63
2023/12/25 09:46:31;;;;;;;12.50;7.50;;;;;;;0.47;100.00;99064.35;109372;1253;74847;-61
2023/12/25 09:48:58;;;;;;;13.00;7.40;;;;;;;0.48;100.00;99058.92;109253;1253;65867;-61
2023/12/25 09:51:33;;;;;;;15.70;7.90;;;;;;;0.50;100.00;99048.16;109210;1253;72272;-61
2023/12/25 09:54:01;;;;;;;15.00;8.60;;;;;;;0.51;100.00;99045.66;109189;1253;60400;-62
2023/12/25 09:56:30;;;;;;;16.90;9.20;;;;;;;0.51;100.00;99030.15;109448;1252;60097;-61
2023/12/25 09:58:57;;;;;;;15.30;9.60;;;;;;;0.53;100.00;99022.57;109236;1252;76692;-61
2023/12/25 10:01:25;;;;;;;18.20;9.90;;;;;;;0.59;100.00;99022.13;109259;1253;67602;-61
2023/12/25 10:03:53;;;;;;;18.00;10.00;;;;;;;0.62;100.00;99022.61;109157;1258;74490;-62
2023/12/25 10:06:20;;;;;;;17.30;10.00;;;;;;;0.61;100.00;99022.34;109175;1254;59317;-61
2023/12/25 10:08:49;;;;;;;17.20;10.40;;;;;;;0.59;100.00;99020.08;109362;1254;59315;-61
2023/12/25 10:11:16;;;;;;;16.70;8.70;;;;;;;0.59;100.00;99013.06;109420;1253;74808;-61
2023/12/25 10:13:44;;;;;;;20.10;10.10;;;;;;;0.61;100.00;99009.11;109381;1256;65781;-62
2023/12/25 10:16:12;;;;;;;16.00;9.60;;;;;;;0.63;100.00;99005.58;109434;1253;71998;-61
2023/12/25 10:18:40;;;;;;;14.50;8.90;;;;;;;0.62;100.00;99000.46;109370;1253;59358;-61
2023/12/25 10:21:09;;;;;;;13.00;8.20;;;;;;;0.62;100.00;98996.39;109359;1253;60553;-61
2023/12/25 10:23:38;;;;;;;10.30;5.00;;;;;;;0.58;100.00;98986.39;109374;1256;74776;-61
2023/12/25 10:26:06;;;;;;;9.40;5.20;;;;;;;0.48;100.00;98983.08;109320;1253;65766;-62
2023/12/25 10:28:34;;;;;;;9.90;5.70;;;;;;;0.37;100.00;98978.52;109399;1254;72626;-61
2023/12/25 10:31:06;;;;;;;9.60;5.00;;;;;;;0.27;100.00;98974.98;109380;1253;59390;-61
2023/12/25 10:33:37;;;;;;;8.50;4.30;;;;;;;0.22;100.00;98968.83;109393;1253;59403;-62
2023/12/25 10:36:06;;;;;;;9.40;4.90;;;;;;;0.15;100.00;98960.24;109360;1252;74856;-62
2023/12/25 10:38:40;;;;;;;9.20;5.50;;;;;;;0.08;100.00;98954.01;109375;1253;66123;-62
2023/12/25 10:41:22;;;;;;;10.90;6.50;;;;;;;0.00;100.00;98950.26;109341;1253;76041;-61
2023/12/25 10:43:56;;;;;;;12.60;7.30;;;;;;;-0.07;100.00;98948.41;109357;1253;59627;-61
2023/12/25 10:46:25;;;;;;;14.30;8.30;;;;;;;-0.11;100.00;98945.55;109391;1252;60121;-61
2023/12/25 10:48:55;;;;;;;12.90;7.80;;;;;;;-0.18;100.00;98943.29;109368;1253;76368;-61
2023/12/25 10:51:25;;;;;;;12.60;7.90;;;;;;;-0.19;100.00;98938.53;109355;1253;69800;-62
2023/12/25 10:53:59;;;;;;;12.70;7.80;;;;;;;-0.19;100.00;98930.77;109334;1253;73233;-61
2023/12/25 10:56:27;;;;;;;12.50;7.40;;;;;;;-0.19;100.00;98922.13;109353;1253;59432;-61
2023/12/25 10:58:57;;;;;;;13.50;8.10;;;;;;;-0.19;100.00;98914.91;109365;1253;59346;-59
2023/12/25 11:01:25;;;;;;;11.30;7.40;;;;;;;-0.14;100.00;98911.85;109320;1253;75571;-60
2023/12/25 11:03:53;;;;;;;10.70;6.50;;;;;;;-0.10;100.00;98906.16;109391;1255;67058;-60
2023/12/25 11:06:21;;;;;;;14.10;7.50;;;;;;;-0.08;100.00;98896.96;109406;1254;74830;-60
2023/12/25 11:08:48;;;;;;;38.90;23.80;;;;;;;-0.08;100.00;98891.98;109345;1252;59770;-59
2023/12/25 11:11:16;;;;;;;59.40;32.30;;;;;;;-0.09;100.00;98883.20;109366;1253;59264;-61
2023/12/25 11:13:44;;;;;;;18.90;11.10;;;;;;;-0.11;100.00;98877.88;109357;1253;74743;-60
2023/12/25 11:16:11;;;;;;;15.60;9.30;;;;;;;-0.13;100.00;98869.98;109412;1253;66952;-60
2023/12/25 11:18:39;;;;;;;11.50;7.30;;;;;;;-0.14;100.00;98865.02;109364;1254;73957;-59
2023/12/25 11:21:08;;;;;;;8.70;5.10;;;;;;;-0.12;100.00;98861.11;109368;1253;63219;-60